sensor_id;sensor_type;location;lat;lon;timestamp;temperature;humidity
9509;DHT22;4792;50.088;8.122;2022-07-23T00:01:28;21.00;99.90
9509;DHT22;4792;50.088;8.122;2022-07-23T00:03:58;21.00;99.90
9509;DHT22;4792;50.088;8.122;2022-07-23T00:06:27;20.90;99.90
9509;DHT22;4792;50.088;8.122;2022-07-23T00:08:55;20.90;99.90
9509;DHT22;4792;50.088;8.122;2022-07-23T00:11:25;20.90;99.90
9509;DHT22;4792;50.088;8.122;2022-07-23T00:13:54;20.80;99.90
9509;DHT22;4792;50.088;8.122;2022-07-23T00:16:25;20.80;99.90
9509;DHT22;4792;50.088;8.122;2022-07-23T00:19:00;20.90;99.90
9509;DHT22;4792;50.088;8.122;2022-07-23T00:21:31;20.90;99.90
9509;DHT22;4792;50.088;8.122;2022-07-23T00:23:59;20.80;99.90
9509;DHT22;4792;50.088;8.122;2022-07-23T00:26:28;20.80;99.90
9509;DHT22;4792;50.088;8.122;2022-07-23T00:28:56;20.80;99.90
9509;DHT22;4792;50.088;8.122;2022-07-23T00:31:24;20.80;99.90
9509;DHT22;4792;50.088;8.122;2022-07-23T00:33:54;20.70;99.90
9509;DHT22;4792;50.088;8.122;2022-07-23T00:36:23;20.70;99.90
9509;DHT22;4792;50.088;8.122;2022-07-23T00:38:52;20.60;99.90
9509;DHT22;4792;50.088;8.122;2022-07-23T00:41:21;20.60;99.90
9509;DHT22;4792;50.088;8.122;2022-07-23T00:43:49;20.60;99.90
9509;DHT22;4792;50.088;8.122;2022-07-23T00:46:19;20.50;99.90
9509;DHT22;4792;50.088;8.122;2022-07-23T00:48:48;20.50;99.90
9509;DHT22;4792;50.088;8.122;2022-07-23T00:51:17;20.40;99.90
9509;DHT22;4792;50.088;8.122;2022-07-23T00:53:45;20.30;99.90
9509;DHT22;4792;50.088;8.122;2022-07-23T00:56:16;20.30;99.90
9509;DHT22;4792;50.088;8.122;2022-07-23T00:58:44;20.20;99.90
9509;DHT22;4792;50.088;8.122;2022-07-23T01:01:12;20.10;99.90
9509;DHT22;4792;50.088;8.122;2022-07-23T01:03:41;20.00;99.90
9509;DHT22;4792;50.088;8.122;2022-07-23T01:06:09;20.00;99.90
9509;DHT22;4792;50.088;8.122;2022-07-23T01:08:38;19.90;99.90
9509;DHT22;4792;50.088;8.122;2022-07-23T01:11:06;19.80;99.90
9509;DHT22;4792;50.088;8.122;2022-07-23T01:13:36;19.60;99.90
9509;DHT22;4792;50.088;8.122;2022-07-23T01:16:08;19.60;99.90
9509;DHT22;4792;50.088;8.122;2022-07-23T01:18:37;19.70;99.90
9509;DHT22;4792;50.088;8.122;2022-07-23T01:21:05;19.70;99.90
9509;DHT22;4792;50.088;8.122;2022-07-23T01:23:35;19.60;99.90
9509;DHT22;4792;50.088;8.122;2022-07-23T01:26:03;19.60;99.90
9509;DHT22;4792;50.088;8.122;2022-07-23T01:28:31;19.50;99.90
9509;DHT22;4792;50.088;8.122;2022-07-23T01:30:59;19.60;99.90
9509;DHT22;4792;50.088;8.122;2022-07-23T01:33:27;19.60;99.90
9509;DHT22;4792;50.088;8.122;2022-07-23T01:35:56;19.50;99.90
9509;DHT22;4792;50.088;8.122;2022-07-23T01:38:24;19.50;99.90
9509;DHT22;4792;50.088;8.122;2022-07-23T01:40:53;19.40;99.90
9509;DHT22;4792;50.088;8.122;2022-07-23T01:43:22;19.50;99.90
9509;DHT22;4792;50.088;8.122;2022-07-23T01:45:53;19.50;99.90
9509;DHT22;4792;50.088;8.122;2022-07-23T01:48:21;19.40;99.90
9509;DHT22;4792;50.088;8.122;2022-07-23T01:50:49;19.20;99.90
9509;DHT22;4792;50.088;8.122;2022-07-23T01:53:18;19.20;99.90
9509;DHT22;4792;50.088;8.122;2022-07-23T01:55:46;19.20;99.90
9509;DHT22;4792;50.088;8.122;2022-07-23T01:58:16;19.20;99.90
9509;DHT22;4792;50.088;8.122;2022-07-23T02:00:47;19.20;99.90
9509;DHT22;4792;50.088;8.122;2022-07-23T02:03:15;19.20;99.90
9509;DHT22;4792;50.088;8.122;2022-07-23T02:05:43;19.10;99.90
9509;DHT22;4792;50.088;8.122;2022-07-23T02:08:15;19.00;99.90
9509;DHT22;4792;50.088;8.122;2022-07-23T02:10:43;19.00;99.90
9509;DHT22;4792;50.088;8.122;2022-07-23T02:13:12;18.90;99.90
9509;DHT22;4792;50.088;8.122;2022-07-23T02:15:46;18.90;99.90
9509;DHT22;4792;50.088;8.122;2022-07-23T02:18:15;18.90;99.90
9509;DHT22;4792;50.088;8.122;2022-07-23T02:20:43;18.80;99.90
9509;DHT22;4792;50.088;8.122;2022-07-23T02:23:12;18.80;99.90
9509;DHT22;4792;50.088;8.122;2022-07-23T02:25:40;18.70;99.90
9509;DHT22;4792;50.088;8.122;2022-07-23T02:28:08;18.80;99.90
9509;DHT22;4792;50.088;8.122;2022-07-23T02:30:36;18.80;99.90
9509;DHT22;4792;50.088;8.122;2022-07-23T02:33:06;18.90;99.90
9509;DHT22;4792;50.088;8.122;2022-07-23T02:35:34;18.90;99.90
9509;DHT22;4792;50.088;8.122;2022-07-23T02:38:02;18.80;99.90
9509;DHT22;4792;50.088;8.122;2022-07-23T02:40:30;18.80;99.90
9509;DHT22;4792;50.088;8.122;2022-07-23T02:42:58;18.70;99.90
9509;DHT22;4792;50.088;8.122;2022-07-23T02:45:26;18.70;99.90
9509;DHT22;4792;50.088;8.122;2022-07-23T02:47:54;18.80;99.90
9509;DHT22;4792;50.088;8.122;2022-07-23T02:50:24;18.70;99.90
9509;DHT22;4792;50.088;8.122;2022-07-23T02:52:52;18.70;99.90
9509;DHT22;4792;50.088;8.122;2022-07-23T02:55:20;18.60;99.90
9509;DHT22;4792;50.088;8.122;2022-07-23T02:57:48;18.70;99.90
9509;DHT22;4792;50.088;8.122;2022-07-23T03:00:16;18.70;99.90
9509;DHT22;4792;50.088;8.122;2022-07-23T03:02:47;18.70;99.90
9509;DHT22;4792;50.088;8.122;2022-07-23T03:05:15;18.70;99.90
9509;DHT22;4792;50.088;8.122;2022-07-23T03:07:45;18.70;99.90
9509;DHT22;4792;50.088;8.122;2022-07-23T03:10:13;18.70;99.90
9509;DHT22;4792;50.088;8.122;2022-07-23T03:12:41;18.70;99.90
9509;DHT22;4792;50.088;8.122;2022-07-23T03:15:10;18.70;99.90
9509;DHT22;4792;50.088;8.122;2022-07-23T03:17:38;18.70;99.90
9509;DHT22;4792;50.088;8.122;2022-07-23T03:20:07;18.70;99.90
9509;DHT22;4792;50.088;8.122;2022-07-23T03:22:36;18.70;99.90
9509;DHT22;4792;50.088;8.122;2022-07-23T03:25:06;18.60;99.90
9509;DHT22;4792;50.088;8.122;2022-07-23T03:27:35;18.70;99.90
9509;DHT22;4792;50.088;8.122;2022-07-23T03:30:03;18.60;99.90
9509;DHT22;4792;50.088;8.122;2022-07-23T03:32:32;18.60;99.90
9509;DHT22;4792;50.088;8.122;2022-07-23T03:35:00;18.50;99.90
9509;DHT22;4792;50.088;8.122;2022-07-23T03:37:28;18.60;99.90
9509;DHT22;4792;50.088;8.122;2022-07-23T03:39:57;18.60;99.90
9509;DHT22;4792;50.088;8.122;2022-07-23T03:42:26;18.40;99.90
9509;DHT22;4792;50.088;8.122;2022-07-23T03:44:55;18.40;99.90
9509;DHT22;4792;50.088;8.122;2022-07-23T03:47:23;18.30;99.90
9509;DHT22;4792;50.088;8.122;2022-07-23T03:49:51;18.20;99.90
9509;DHT22;4792;50.088;8.122;2022-07-23T03:52:19;18.20;99.90
9509;DHT22;4792;50.088;8.122;2022-07-23T03:54:47;18.20;99.90
9509;DHT22;4792;50.088;8.122;2022-07-23T03:57:15;18.10;99.90
9509;DHT22;4792;50.088;8.122;2022-07-23T03:59:45;18.10;99.90
9509;DHT22;4792;50.088;8.122;2022-07-23T04:02:13;18.00;99.90
9509;DHT22;4792;50.088;8.122;2022-07-23T04:04:41;17.80;99.90
9509;DHT22;4792;50.088;8.122;2022-07-23T04:07:09;17.70;99.90
9509;DHT22;4792;50.088;8.122;2022-07-23T04:09:37;17.70;99.90
9509;DHT22;4792;50.088;8.122;2022-07-23T04:12:12;17.70;99.90
9509;DHT22;4792;50.088;8.122;2022-07-23T04:14:40;17.50;99.90
9509;DHT22;4792;50.088;8.122;2022-07-23T04:17:09;17.50;99.90
9509;DHT22;4792;50.088;8.122;2022-07-23T04:19:37;17.60;99.90
9509;DHT22;4792;50.088;8.122;2022-07-23T04:22:07;17.60;99.90
9509;DHT22;4792;50.088;8.122;2022-07-23T04:24:35;17.70;99.90
9509;DHT22;4792;50.088;8.122;2022-07-23T04:27:04;17.70;99.90
9509;DHT22;4792;50.088;8.122;2022-07-23T04:29:32;17.70;99.90
9509;DHT22;4792;50.088;8.122;2022-07-23T04:32:00;17.70;99.90
9509;DHT22;4792;50.088;8.122;2022-07-23T04:34:30;17.70;99.90
9509;DHT22;4792;50.088;8.122;2022-07-23T04:36:58;17.80;99.90
9509;DHT22;4792;50.088;8.122;2022-07-23T04:39:26;17.70;99.90
9509;DHT22;4792;50.088;8.122;2022-07-23T04:41:54;17.70;99.90
9509;DHT22;4792;50.088;8.122;2022-07-23T04:44:23;17.80;99.90
9509;DHT22;4792;50.088;8.122;2022-07-23T04:46:51;17.80;99.90
9509;DHT22;4792;50.088;8.122;2022-07-23T04:49:20;18.00;99.90
9509;DHT22;4792;50.088;8.122;2022-07-23T04:51:49;18.10;99.90
9509;DHT22;4792;50.088;8.122;2022-07-23T04:54:17;18.10;99.90
9509;DHT22;4792;50.088;8.122;2022-07-23T04:56:45;18.10;99.90
9509;DHT22;4792;50.088;8.122;2022-07-23T04:59:14;18.20;99.90
9509;DHT22;4792;50.088;8.122;2022-07-23T05:01:42;18.30;99.90
9509;DHT22;4792;50.088;8.122;2022-07-23T05:04:10;18.30;99.90
9509;DHT22;4792;50.088;8.122;2022-07-23T05:06:38;18.40;99.90
9509;DHT22;4792;50.088;8.122;2022-07-23T05:09:07;18.50;99.90
9509;DHT22;4792;50.088;8.122;2022-07-23T05:11:36;18.60;99.90
9509;DHT22;4792;50.088;8.122;2022-07-23T05:14:04;18.70;99.90
9509;DHT22;4792;50.088;8.122;2022-07-23T05:16:32;18.70;99.90
9509;DHT22;4792;50.088;8.122;2022-07-23T05:19:00;18.70;99.90
9509;DHT22;4792;50.088;8.122;2022-07-23T05:21:29;18.60;99.90
9509;DHT22;4792;50.088;8.122;2022-07-23T05:23:57;18.50;99.90
9509;DHT22;4792;50.088;8.122;2022-07-23T05:26:27;18.50;99.90
9509;DHT22;4792;50.088;8.122;2022-07-23T05:28:56;18.50;99.90
9509;DHT22;4792;50.088;8.122;2022-07-23T05:31:27;18.50;99.90
9509;DHT22;4792;50.088;8.122;2022-07-23T05:33:55;18.50;99.90
9509;DHT22;4792;50.088;8.122;2022-07-23T05:36:23;18.60;99.90
9509;DHT22;4792;50.088;8.122;2022-07-23T05:38:51;18.70;99.90
9509;DHT22;4792;50.088;8.122;2022-07-23T05:41:19;18.80;99.90
9509;DHT22;4792;50.088;8.122;2022-07-23T05:43:49;18.80;99.90
9509;DHT22;4792;50.088;8.122;2022-07-23T05:46:17;18.90;99.90
9509;DHT22;4792;50.088;8.122;2022-07-23T05:48:45;18.90;99.90
9509;DHT22;4792;50.088;8.122;2022-07-23T05:51:19;19.00;99.90
9509;DHT22;4792;50.088;8.122;2022-07-23T05:53:48;19.10;99.90
9509;DHT22;4792;50.088;8.122;2022-07-23T05:56:16;19.10;99.90
9509;DHT22;4792;50.088;8.122;2022-07-23T05:58:44;19.20;99.90
9509;DHT22;4792;50.088;8.122;2022-07-23T06:01:14;19.50;99.90
9509;DHT22;4792;50.088;8.122;2022-07-23T06:03:42;19.60;99.90
9509;DHT22;4792;50.088;8.122;2022-07-23T06:06:10;19.80;99.90
9509;DHT22;4792;50.088;8.122;2022-07-23T06:08:38;19.80;99.90
9509;DHT22;4792;50.088;8.122;2022-07-23T06:11:07;19.90;99.90
9509;DHT22;4792;50.088;8.122;2022-07-23T06:13:35;20.00;99.90
9509;DHT22;4792;50.088;8.122;2022-07-23T06:16:03;20.20;99.90
9509;DHT22;4792;50.088;8.122;2022-07-23T06:18:33;20.40;99.90
9509;DHT22;4792;50.088;8.122;2022-07-23T06:21:01;20.40;99.90
9509;DHT22;4792;50.088;8.122;2022-07-23T06:23:50;20.40;99.90
9509;DHT22;4792;50.088;8.122;2022-07-23T06:26:18;20.50;99.90
9509;DHT22;4792;50.088;8.122;2022-07-23T06:28:46;20.70;99.90
9509;DHT22;4792;50.088;8.122;2022-07-23T06:31:14;20.70;99.90
9509;DHT22;4792;50.088;8.122;2022-07-23T06:33:43;20.70;99.90
9509;DHT22;4792;50.088;8.122;2022-07-23T06:36:11;20.80;99.90
9509;DHT22;4792;50.088;8.122;2022-07-23T06:38:40;21.00;99.90
9509;DHT22;4792;50.088;8.122;2022-07-23T06:41:10;21.10;99.90
9509;DHT22;4792;50.088;8.122;2022-07-23T06:43:38;20.90;99.90
9509;DHT22;4792;50.088;8.122;2022-07-23T06:46:06;20.50;99.90
9509;DHT22;4792;50.088;8.122;2022-07-23T06:48:34;20.30;99.90
9509;DHT22;4792;50.088;8.122;2022-07-23T06:51:04;20.20;99.90
9509;DHT22;4792;50.088;8.122;2022-07-23T06:53:33;20.10;99.90
9509;DHT22;4792;50.088;8.122;2022-07-23T06:56:01;20.20;99.90
9509;DHT22;4792;50.088;8.122;2022-07-23T06:58:29;20.10;99.90
9509;DHT22;4792;50.088;8.122;2022-07-23T07:00:57;20.20;99.90
9509;DHT22;4792;50.088;8.122;2022-07-23T07:03:25;20.30;99.90
9509;DHT22;4792;50.088;8.122;2022-07-23T07:05:54;20.40;99.90
9509;DHT22;4792;50.088;8.122;2022-07-23T07:08:25;20.40;99.90
9509;DHT22;4792;50.088;8.122;2022-07-23T07:10:54;20.30;99.90
9509;DHT22;4792;50.088;8.122;2022-07-23T07:13:22;20.30;99.90
9509;DHT22;4792;50.088;8.122;2022-07-23T07:15:50;20.40;99.90
9509;DHT22;4792;50.088;8.122;2022-07-23T07:18:18;20.60;99.90
9509;DHT22;4792;50.088;8.122;2022-07-23T07:20:47;20.90;99.90
9509;DHT22;4792;50.088;8.122;2022-07-23T07:23:15;21.30;99.90
9509;DHT22;4792;50.088;8.122;2022-07-23T07:25:44;21.60;99.90
9509;DHT22;4792;50.088;8.122;2022-07-23T07:28:13;21.80;99.90
9509;DHT22;4792;50.088;8.122;2022-07-23T07:30:41;21.80;99.90
9509;DHT22;4792;50.088;8.122;2022-07-23T07:33:09;22.00;99.90
9509;DHT22;4792;50.088;8.122;2022-07-23T07:35:38;22.20;99.90
9509;DHT22;4792;50.088;8.122;2022-07-23T07:38:06;22.40;99.90
9509;DHT22;4792;50.088;8.122;2022-07-23T07:40:34;22.60;99.90
9509;DHT22;4792;50.088;8.122;2022-07-23T07:43:04;22.60;99.90
9509;DHT22;4792;50.088;8.122;2022-07-23T07:45:33;22.70;99.90
9509;DHT22;4792;50.088;8.122;2022-07-23T07:48:01;22.80;99.90
9509;DHT22;4792;50.088;8.122;2022-07-23T07:50:29;22.70;99.90
9509;DHT22;4792;50.088;8.122;2022-07-23T07:52:57;22.90;99.90
9509;DHT22;4792;50.088;8.122;2022-07-23T07:55:25;22.90;99.90
9509;DHT22;4792;50.088;8.122;2022-07-23T07:57:55;22.90;99.90
9509;DHT22;4792;50.088;8.122;2022-07-23T08:00:25;23.10;99.90
9509;DHT22;4792;50.088;8.122;2022-07-23T08:02:54;23.20;99.90
9509;DHT22;4792;50.088;8.122;2022-07-23T08:05:26;23.20;99.90
9509;DHT22;4792;50.088;8.122;2022-07-23T08:07:56;23.20;99.90
9509;DHT22;4792;50.088;8.122;2022-07-23T08:10:25;23.20;99.90
9509;DHT22;4792;50.088;8.122;2022-07-23T08:12:55;23.40;99.90
9509;DHT22;4792;50.088;8.122;2022-07-23T08:15:27;23.40;99.90
9509;DHT22;4792;50.088;8.122;2022-07-23T08:17:55;23.60;99.90
9509;DHT22;4792;50.088;8.122;2022-07-23T08:20:25;23.80;99.90
9509;DHT22;4792;50.088;8.122;2022-07-23T08:22:56;23.10;99.90
9509;DHT22;4792;50.088;8.122;2022-07-23T08:25:26;23.40;99.90
9509;DHT22;4792;50.088;8.122;2022-07-23T08:27:56;23.80;99.90
9509;DHT22;4792;50.088;8.122;2022-07-23T08:30:26;24.00;99.90
9509;DHT22;4792;50.088;8.122;2022-07-23T08:32:57;24.40;99.90
9509;DHT22;4792;50.088;8.122;2022-07-23T08:35:29;24.90;99.90
9509;DHT22;4792;50.088;8.122;2022-07-23T08:37:58;25.00;99.90
9509;DHT22;4792;50.088;8.122;2022-07-23T08:40:29;25.10;99.90
9509;DHT22;4792;50.088;8.122;2022-07-23T08:42:58;25.20;99.90
9509;DHT22;4792;50.088;8.122;2022-07-23T08:45:28;24.90;99.90
9509;DHT22;4792;50.088;8.122;2022-07-23T08:47:58;24.60;99.90
9509;DHT22;4792;50.088;8.122;2022-07-23T08:50:32;24.70;99.90
9509;DHT22;4792;50.088;8.122;2022-07-23T08:53:06;24.60;99.90
9509;DHT22;4792;50.088;8.122;2022-07-23T08:55:35;24.70;99.90
9509;DHT22;4792;50.088;8.122;2022-07-23T08:58:03;25.00;99.90
9509;DHT22;4792;50.088;8.122;2022-07-23T09:00:33;25.20;99.90
9509;DHT22;4792;50.088;8.122;2022-07-23T09:03:02;25.50;99.90
9509;DHT22;4792;50.088;8.122;2022-07-23T09:05:30;25.70;99.90
9509;DHT22;4792;50.088;8.122;2022-07-23T09:08:10;25.70;99.90
9509;DHT22;4792;50.088;8.122;2022-07-23T09:10:50;25.60;99.90
9509;DHT22;4792;50.088;8.122;2022-07-23T09:13:28;25.60;99.90
9509;DHT22;4792;50.088;8.122;2022-07-23T09:15:59;25.70;99.90
9509;DHT22;4792;50.088;8.122;2022-07-23T09:18:39;25.20;99.90
9509;DHT22;4792;50.088;8.122;2022-07-23T09:21:13;25.50;99.90
9509;DHT22;4792;50.088;8.122;2022-07-23T09:23:44;25.60;99.90
9509;DHT22;4792;50.088;8.122;2022-07-23T09:26:24;25.90;99.90
9509;DHT22;4792;50.088;8.122;2022-07-23T09:28:58;26.10;99.90
9509;DHT22;4792;50.088;8.122;2022-07-23T09:31:33;26.50;99.90
9509;DHT22;4792;50.088;8.122;2022-07-23T09:34:14;26.80;99.90
9509;DHT22;4792;50.088;8.122;2022-07-23T09:36:43;27.10;99.90
9509;DHT22;4792;50.088;8.122;2022-07-23T09:39:12;27.50;99.90
9509;DHT22;4792;50.088;8.122;2022-07-23T09:41:42;27.80;99.90
9509;DHT22;4792;50.088;8.122;2022-07-23T09:44:14;27.60;99.90
9509;DHT22;4792;50.088;8.122;2022-07-23T09:46:45;27.40;99.90
9509;DHT22;4792;50.088;8.122;2022-07-23T09:49:16;27.30;99.90
9509;DHT22;4792;50.088;8.122;2022-07-23T09:51:52;26.90;99.90
9509;DHT22;4792;50.088;8.122;2022-07-23T09:54:32;26.40;99.90
9509;DHT22;4792;50.088;8.122;2022-07-23T09:57:04;26.80;99.90
9509;DHT22;4792;50.088;8.122;2022-07-23T09:59:37;27.10;99.90
9509;DHT22;4792;50.088;8.122;2022-07-23T10:02:08;27.40;99.90
9509;DHT22;4792;50.088;8.122;2022-07-23T10:04:36;27.30;99.90
9509;DHT22;4792;50.088;8.122;2022-07-23T10:07:07;27.60;99.90
9509;DHT22;4792;50.088;8.122;2022-07-23T10:09:38;27.80;99.90
9509;DHT22;4792;50.088;8.122;2022-07-23T10:12:10;28.10;99.90
9509;DHT22;4792;50.088;8.122;2022-07-23T10:14:51;28.40;99.90
9509;DHT22;4792;50.088;8.122;2022-07-23T10:17:21;28.70;99.90
9509;DHT22;4792;50.088;8.122;2022-07-23T10:19:49;28.80;99.90
9509;DHT22;4792;50.088;8.122;2022-07-23T10:22:20;28.90;99.90
9509;DHT22;4792;50.088;8.122;2022-07-23T10:25:08;29.20;99.90
9509;DHT22;4792;50.088;8.122;2022-07-23T10:30:43;28.80;99.90
9509;DHT22;4792;50.088;8.122;2022-07-23T10:33:25;28.20;99.90
9509;DHT22;4792;50.088;8.122;2022-07-23T10:36:00;27.70;99.90
9509;DHT22;4792;50.088;8.122;2022-07-23T10:38:35;27.80;99.90
9509;DHT22;4792;50.088;8.122;2022-07-23T10:41:05;27.80;99.90
9509;DHT22;4792;50.088;8.122;2022-07-23T10:43:33;27.80;99.90
9509;DHT22;4792;50.088;8.122;2022-07-23T10:46:21;27.80;99.90
9509;DHT22;4792;50.088;8.122;2022-07-23T10:49:24;28.00;99.90
9509;DHT22;4792;50.088;8.122;2022-07-23T10:52:20;28.90;99.90
9509;DHT22;4792;50.088;8.122;2022-07-23T10:54:50;29.30;99.90
9509;DHT22;4792;50.088;8.122;2022-07-23T10:57:19;29.10;99.90
9509;DHT22;4792;50.088;8.122;2022-07-23T11:02:53;29.50;99.90
9509;DHT22;4792;50.088;8.122;2022-07-23T11:05:24;28.60;99.90
9509;DHT22;4792;50.088;8.122;2022-07-23T11:08:15;28.70;99.90
9509;DHT22;4792;50.088;8.122;2022-07-23T11:10:47;29.20;99.90
9509;DHT22;4792;50.088;8.122;2022-07-23T11:13:27;29.90;99.90
9509;DHT22;4792;50.088;8.122;2022-07-23T11:16:25;30.50;99.90
9509;DHT22;4792;50.088;8.122;2022-07-23T11:19:04;30.90;99.90
9509;DHT22;4792;50.088;8.122;2022-07-23T11:21:48;31.30;99.90
9509;DHT22;4792;50.088;8.122;2022-07-23T11:24:18;31.30;99.90
9509;DHT22;4792;50.088;8.122;2022-07-23T11:29:48;30.80;99.90
9509;DHT22;4792;50.088;8.122;2022-07-23T11:32:25;30.00;99.90
9509;DHT22;4792;50.088;8.122;2022-07-23T11:34:55;30.30;99.90
9509;DHT22;4792;50.088;8.122;2022-07-23T11:37:32;30.00;99.90
9509;DHT22;4792;50.088;8.122;2022-07-23T11:40:05;30.70;99.90
9509;DHT22;4792;50.088;8.122;2022-07-23T11:42:36;31.10;99.90
9509;DHT22;4792;50.088;8.122;2022-07-23T11:45:06;31.30;99.90
9509;DHT22;4792;50.088;8.122;2022-07-23T11:47:35;31.80;99.90
9509;DHT22;4792;50.088;8.122;2022-07-23T11:50:05;32.30;99.50
9509;DHT22;4792;50.088;8.122;2022-07-23T11:52:35;32.30;98.70
9509;DHT22;4792;50.088;8.122;2022-07-23T11:55:05;32.10;98.70
9509;DHT22;4792;50.088;8.122;2022-07-23T11:57:35;32.00;98.30
9509;DHT22;4792;50.088;8.122;2022-07-23T12:00:06;31.10;98.90
9509;DHT22;4792;50.088;8.122;2022-07-23T12:02:36;31.30;99.00
9509;DHT22;4792;50.088;8.122;2022-07-23T12:05:06;31.90;99.00
9509;DHT22;4792;50.088;8.122;2022-07-23T12:07:38;32.00;98.30
9509;DHT22;4792;50.088;8.122;2022-07-23T12:10:11;32.00;97.10
9509;DHT22;4792;50.088;8.122;2022-07-23T12:12:41;32.00;97.20
9509;DHT22;4792;50.088;8.122;2022-07-23T12:15:10;31.60;96.40
9509;DHT22;4792;50.088;8.122;2022-07-23T12:17:44;30.80;98.20
9509;DHT22;4792;50.088;8.122;2022-07-23T12:20:20;30.90;97.90
9509;DHT22;4792;50.088;8.122;2022-07-23T12:22:51;30.40;97.80
9509;DHT22;4792;50.088;8.122;2022-07-23T12:25:21;29.90;98.50
9509;DHT22;4792;50.088;8.122;2022-07-23T12:27:59;30.00;98.80
9509;DHT22;4792;50.088;8.122;2022-07-23T12:30:31;29.80;98.10
9509;DHT22;4792;50.088;8.122;2022-07-23T12:33:01;29.40;98.60
9509;DHT22;4792;50.088;8.122;2022-07-23T12:35:32;30.20;99.20
9509;DHT22;4792;50.088;8.122;2022-07-23T12:38:04;30.80;98.20
9509;DHT22;4792;50.088;8.122;2022-07-23T12:40:34;30.00;97.30
9509;DHT22;4792;50.088;8.122;2022-07-23T12:43:04;29.60;97.70
9509;DHT22;4792;50.088;8.122;2022-07-23T12:45:45;30.30;97.50
9509;DHT22;4792;50.088;8.122;2022-07-23T12:48:31;30.40;97.70
9509;DHT22;4792;50.088;8.122;2022-07-23T12:51:02;30.20;96.50
9509;DHT22;4792;50.088;8.122;2022-07-23T12:53:38;29.70;97.40
9509;DHT22;4792;50.088;8.122;2022-07-23T12:56:09;29.60;97.50
9509;DHT22;4792;50.088;8.122;2022-07-23T12:58:44;29.60;96.60
9509;DHT22;4792;50.088;8.122;2022-07-23T13:01:25;29.20;97.60
9509;DHT22;4792;50.088;8.122;2022-07-23T13:03:59;29.00;97.70
9509;DHT22;4792;50.088;8.122;2022-07-23T13:06:29;28.90;98.00
9509;DHT22;4792;50.088;8.122;2022-07-23T13:09:00;28.80;97.90
9509;DHT22;4792;50.088;8.122;2022-07-23T13:11:30;29.50;97.30
9509;DHT22;4792;50.088;8.122;2022-07-23T13:13:59;30.50;97.10
9509;DHT22;4792;50.088;8.122;2022-07-23T13:16:28;31.40;96.30
9509;DHT22;4792;50.088;8.122;2022-07-23T13:18:58;32.10;94.90
9509;DHT22;4792;50.088;8.122;2022-07-23T13:21:28;32.60;94.40
9509;DHT22;4792;50.088;8.122;2022-07-23T13:23:56;31.50;93.80
9509;DHT22;4792;50.088;8.122;2022-07-23T13:26:27;31.10;93.90
9509;DHT22;4792;50.088;8.122;2022-07-23T13:28:55;30.30;95.00
9509;DHT22;4792;50.088;8.122;2022-07-23T13:31:24;30.20;94.80
9509;DHT22;4792;50.088;8.122;2022-07-23T13:33:53;29.80;94.90
9509;DHT22;4792;50.088;8.122;2022-07-23T13:36:21;29.30;95.00
9509;DHT22;4792;50.088;8.122;2022-07-23T13:38:49;29.60;95.40
9509;DHT22;4792;50.088;8.122;2022-07-23T13:41:18;30.30;95.60
9509;DHT22;4792;50.088;8.122;2022-07-23T13:43:47;30.90;95.10
9509;DHT22;4792;50.088;8.122;2022-07-23T13:46:17;30.90;94.30
9509;DHT22;4792;50.088;8.122;2022-07-23T13:48:46;30.80;94.30
9509;DHT22;4792;50.088;8.122;2022-07-23T13:51:15;30.70;94.10
9509;DHT22;4792;50.088;8.122;2022-07-23T13:53:46;30.30;93.40
9509;DHT22;4792;50.088;8.122;2022-07-23T13:56:15;29.70;94.00
9509;DHT22;4792;50.088;8.122;2022-07-23T13:58:44;29.20;94.40
9509;DHT22;4792;50.088;8.122;2022-07-23T14:01:13;29.40;94.40
9509;DHT22;4792;50.088;8.122;2022-07-23T14:03:44;29.40;94.60
9509;DHT22;4792;50.088;8.122;2022-07-23T14:06:13;29.70;94.70
9509;DHT22;4792;50.088;8.122;2022-07-23T14:08:42;30.10;94.30
9509;DHT22;4792;50.088;8.122;2022-07-23T14:11:11;29.90;93.10
9509;DHT22;4792;50.088;8.122;2022-07-23T14:13:39;29.60;92.20
9509;DHT22;4792;50.088;8.122;2022-07-23T14:16:08;29.40;92.60
9509;DHT22;4792;50.088;8.122;2022-07-23T14:18:37;29.40;93.10
9509;DHT22;4792;50.088;8.122;2022-07-23T14:21:06;29.90;92.80
9509;DHT22;4792;50.088;8.122;2022-07-23T14:23:35;30.30;93.30
9509;DHT22;4792;50.088;8.122;2022-07-23T14:26:03;30.70;92.40
9509;DHT22;4792;50.088;8.122;2022-07-23T14:28:32;30.70;90.90
9509;DHT22;4792;50.088;8.122;2022-07-23T14:31:02;30.00;90.90
9509;DHT22;4792;50.088;8.122;2022-07-23T14:33:30;30.40;91.30
9509;DHT22;4792;50.088;8.122;2022-07-23T14:36:00;31.10;90.80
9509;DHT22;4792;50.088;8.122;2022-07-23T14:38:28;30.90;90.90
9509;DHT22;4792;50.088;8.122;2022-07-23T14:40:57;30.70;90.50
9509;DHT22;4792;50.088;8.122;2022-07-23T14:43:26;30.30;90.30
9509;DHT22;4792;50.088;8.122;2022-07-23T14:45:55;30.30;90.00
9509;DHT22;4792;50.088;8.122;2022-07-23T14:48:23;30.00;90.30
9509;DHT22;4792;50.088;8.122;2022-07-23T14:50:51;30.60;91.30
9509;DHT22;4792;50.088;8.122;2022-07-23T14:53:21;30.60;90.80
9509;DHT22;4792;50.088;8.122;2022-07-23T14:55:51;30.10;90.90
9509;DHT22;4792;50.088;8.122;2022-07-23T14:58:21;30.30;91.20
9509;DHT22;4792;50.088;8.122;2022-07-23T15:00:49;30.90;90.10
9509;DHT22;4792;50.088;8.122;2022-07-23T15:03:17;30.90;89.70
9509;DHT22;4792;50.088;8.122;2022-07-23T15:05:46;31.40;88.60
9509;DHT22;4792;50.088;8.122;2022-07-23T15:08:14;31.50;86.80
9509;DHT22;4792;50.088;8.122;2022-07-23T15:10:50;31.70;85.70
9509;DHT22;4792;50.088;8.122;2022-07-23T15:13:18;31.80;85.00
9509;DHT22;4792;50.088;8.122;2022-07-23T15:15:46;32.10;85.20
9509;DHT22;4792;50.088;8.122;2022-07-23T15:18:21;32.30;84.90
9509;DHT22;4792;50.088;8.122;2022-07-23T15:20:49;32.30;83.20
9509;DHT22;4792;50.088;8.122;2022-07-23T15:23:18;32.20;82.60
9509;DHT22;4792;50.088;8.122;2022-07-23T15:25:47;31.90;84.30
9509;DHT22;4792;50.088;8.122;2022-07-23T15:28:18;32.10;83.30
9509;DHT22;4792;50.088;8.122;2022-07-23T15:31:06;31.30;83.20
9509;DHT22;4792;50.088;8.122;2022-07-23T15:33:35;30.70;84.20
9509;DHT22;4792;50.088;8.122;2022-07-23T15:36:04;31.10;83.70
9509;DHT22;4792;50.088;8.122;2022-07-23T15:38:33;31.60;84.40
9509;DHT22;4792;50.088;8.122;2022-07-23T15:41:02;31.20;82.60
9509;DHT22;4792;50.088;8.122;2022-07-23T15:43:31;31.30;83.30
9509;DHT22;4792;50.088;8.122;2022-07-23T15:46:00;31.60;82.60
9509;DHT22;4792;50.088;8.122;2022-07-23T15:48:35;31.50;83.30
9509;DHT22;4792;50.088;8.122;2022-07-23T15:51:04;31.00;82.50
9509;DHT22;4792;50.088;8.122;2022-07-23T15:53:34;31.10;82.80
9509;DHT22;4792;50.088;8.122;2022-07-23T15:56:05;31.40;83.10
9509;DHT22;4792;50.088;8.122;2022-07-23T15:58:42;31.40;83.20
9509;DHT22;4792;50.088;8.122;2022-07-23T16:01:11;31.30;82.40
9509;DHT22;4792;50.088;8.122;2022-07-23T16:03:39;31.70;83.40
9509;DHT22;4792;50.088;8.122;2022-07-23T16:06:10;31.70;82.90
9509;DHT22;4792;50.088;8.122;2022-07-23T16:08:42;31.90;82.50
9509;DHT22;4792;50.088;8.122;2022-07-23T16:11:10;31.90;81.70
9509;DHT22;4792;50.088;8.122;2022-07-23T16:13:41;32.30;82.80
9509;DHT22;4792;50.088;8.122;2022-07-23T16:16:10;32.40;80.60
9509;DHT22;4792;50.088;8.122;2022-07-23T16:18:39;32.20;81.40
9509;DHT22;4792;50.088;8.122;2022-07-23T16:21:07;31.90;83.80
9509;DHT22;4792;50.088;8.122;2022-07-23T16:23:41;32.00;83.10
9509;DHT22;4792;50.088;8.122;2022-07-23T16:26:10;32.10;83.90
9509;DHT22;4792;50.088;8.122;2022-07-23T16:28:39;32.30;82.60
9509;DHT22;4792;50.088;8.122;2022-07-23T16:31:09;31.10;83.10